sensor_id;sensor_type;location;lat;lon;timestamp;pressure;altitude;pressure_sealevel;temperature;humidity
30073;BME280;16897;52.422;13.678;2024-02-21T00:02:49;101725.44;;;11.14;60.82
30073;BME280;16897;52.422;13.678;2024-02-21T00:06:50;101717.06;;;11.05;60.91
30073;BME280;16897;52.422;13.678;2024-02-21T00:10:51;101716.94;;;11.08;60.94
30073;BME280;16897;52.422;13.678;2024-02-21T00:14:53;101709.50;;;10.99;60.77
30073;BME280;16897;52.422;13.678;2024-02-21T00:18:54;101680.44;;;10.85;60.71
30073;BME280;16897;52.422;13.678;2024-02-21T00:22:56;101722.22;;;11.07;60.79
30073;BME280;16897;52.422;13.678;2024-02-21T00:26:57;101681.31;;;10.85;60.77
30073;BME280;16897;52.422;13.678;2024-02-21T00:30:59;101702.31;;;11.04;60.87
30073;BME280;16897;52.422;13.678;2024-02-21T00:35:00;101707.41;;;11.07;60.96
30073;BME280;16897;52.422;13.678;2024-02-21T00:39:02;101688.69;;;10.96;60.77
30073;BME280;16897;52.422;13.678;2024-02-21T00:43:04;101697.13;;;11.03;60.84
30073;BME280;16897;52.422;13.678;2024-02-21T00:47:05;101706.63;;;11.05;60.82
30073;BME280;16897;52.422;13.678;2024-02-21T00:51:07;101679.28;;;10.92;60.99
30073;BME280;16897;52.422;13.678;2024-02-21T00:55:09;101663.06;;;10.84;60.76
30073;BME280;16897;52.422;13.678;2024-02-21T00:59:10;101673.94;;;10.95;60.95
30073;BME280;16897;52.422;13.678;2024-02-21T01:03:11;101673.88;;;10.97;60.92
30073;BME280;16897;52.422;13.678;2024-02-21T01:07:13;101657.59;;;10.90;60.72
30073;BME280;16897;52.422;13.678;2024-02-21T01:11:15;101638.84;;;10.80;60.90
30073;BME280;16897;52.422;13.678;2024-02-21T01:15:17;101662.75;;;10.92;60.95
30073;BME280;16897;52.422;13.678;2024-02-21T01:19:18;101662.69;;;10.93;60.92
30073;BME280;16897;52.422;13.678;2024-02-21T01:23:19;101645.50;;;10.88;60.92
30073;BME280;16897;52.422;13.678;2024-02-21T01:27:21;101668.69;;;10.95;60.79
30073;BME280;16897;52.422;13.678;2024-02-21T01:31:22;101643.84;;;10.85;60.66
30073;BME280;16897;52.422;13.678;2024-02-21T01:35:23;101664.25;;;10.97;60.77
30073;BME280;16897;52.422;13.678;2024-02-21T01:39:25;101651.19;;;10.97;61.01
30073;BME280;16897;52.422;13.678;2024-02-21T01:43:26;101642.56;;;10.95;60.89
30073;BME280;16897;52.422;13.678;2024-02-21T01:47:28;101623.81;;;10.85;60.82
30073;BME280;16897;52.422;13.678;2024-02-21T01:51:31;101595.91;;;10.66;60.79
30073;BME280;16897;52.422;13.678;2024-02-21T01:55:36;101631.41;;;10.92;60.86
30073;BME280;16897;52.422;13.678;2024-02-21T01:59:38;101628.97;;;10.87;60.81
30073;BME280;16897;52.422;13.678;2024-02-21T02:03:40;101609.88;;;10.85;60.99
30073;BME280;16897;52.422;13.678;2024-02-21T02:07:42;101575.13;;;10.62;60.83
30073;BME280;16897;52.422;13.678;2024-02-21T02:11:43;101623.56;;;10.92;60.73
30073;BME280;16897;52.422;13.678;2024-02-21T02:15:46;101623.34;;;10.96;60.82
30073;BME280;16897;52.422;13.678;2024-02-21T02:19:47;101611.34;;;10.92;60.98
30073;BME280;16897;52.422;13.678;2024-02-21T02:23:49;101592.47;;;10.85;60.82
30073;BME280;16897;52.422;13.678;2024-02-21T02:27:50;101591.41;;;10.90;60.85
30073;BME280;16897;52.422;13.678;2024-02-21T02:31:52;101593.00;;;10.94;60.93
30073;BME280;16897;52.422;13.678;2024-02-21T02:35:53;101572.31;;;10.88;60.75
30073;BME280;16897;52.422;13.678;2024-02-21T02:39:55;101569.66;;;10.89;60.97
30073;BME280;16897;52.422;13.678;2024-02-21T02:43:56;101564.56;;;10.86;60.73
30073;BME280;16897;52.422;13.678;2024-02-21T02:47:58;101574.69;;;10.94;60.76
30073;BME280;16897;52.422;13.678;2024-02-21T02:52:00;101587.63;;;10.97;60.92
30073;BME280;16897;52.422;13.678;2024-02-21T02:56:01;101591.28;;;10.93;61.04
30073;BME280;16897;52.422;13.678;2024-02-21T03:00:04;101597.34;;;10.93;60.93
30073;BME280;16897;52.422;13.678;2024-02-21T03:04:05;101580.25;;;10.86;60.94
30073;BME280;16897;52.422;13.678;2024-02-21T03:08:07;101578.47;;;10.87;60.97
30073;BME280;16897;52.422;13.678;2024-02-21T03:12:09;101568.88;;;10.87;61.00
30073;BME280;16897;52.422;13.678;2024-02-21T03:16:11;101512.78;;;10.55;60.92
30073;BME280;16897;52.422;13.678;2024-02-21T03:20:12;101551.75;;;10.80;60.79
30073;BME280;16897;52.422;13.678;2024-02-21T03:24:14;101556.66;;;10.88;60.79
30073;BME280;16897;52.422;13.678;2024-02-21T03:28:16;101545.63;;;10.81;61.01
30073;BME280;16897;52.422;13.678;2024-02-21T03:32:17;101552.41;;;10.85;60.97
30073;BME280;16897;52.422;13.678;2024-02-21T03:36:19;101498.03;;;10.54;60.92
30073;BME280;16897;52.422;13.678;2024-02-21T03:40:20;101552.50;;;10.83;60.89
30073;BME280;16897;52.422;13.678;2024-02-21T03:44:22;101538.16;;;10.72;61.02
30073;BME280;16897;52.422;13.678;2024-02-21T03:48:23;101527.84;;;10.69;60.95
30073;BME280;16897;52.422;13.678;2024-02-21T03:52:25;101535.56;;;10.72;61.06
30073;BME280;16897;52.422;13.678;2024-02-21T03:56:26;101537.13;;;10.76;60.84
30073;BME280;16897;52.422;13.678;2024-02-21T04:00:28;101541.56;;;10.74;60.96
30073;BME280;16897;52.422;13.678;2024-02-21T04:04:30;101524.41;;;10.68;60.94
30073;BME280;16897;52.422;13.678;2024-02-21T04:08:31;101520.03;;;10.69;60.82
30073;BME280;16897;52.422;13.678;2024-02-21T04:12:33;101479.09;;;10.49;60.99
30073;BME280;16897;52.422;13.678;2024-02-21T04:16:34;101496.25;;;10.54;60.85
30073;BME280;16897;52.422;13.678;2024-02-21T04:20:36;101468.41;;;10.34;61.02
30073;BME280;16897;52.422;13.678;2024-02-21T04:24:38;101510.69;;;10.63;60.98
30073;BME280;16897;52.422;13.678;2024-02-21T04:28:39;101466.50;;;10.38;60.98
30073;BME280;16897;52.422;13.678;2024-02-21T04:32:41;101489.09;;;10.59;61.03
30073;BME280;16897;52.422;13.678;2024-02-21T04:36:43;101476.72;;;10.63;61.06
30073;BME280;16897;52.422;13.678;2024-02-21T04:40:45;101438.16;;;10.49;61.13
30073;BME280;16897;52.422;13.678;2024-02-21T04:44:46;101434.69;;;10.49;60.97
30073;BME280;16897;52.422;13.678;2024-02-21T04:48:48;101443.09;;;10.55;61.10
30073;BME280;16897;52.422;13.678;2024-02-21T04:52:49;101414.00;;;10.44;60.98
30073;BME280;16897;52.422;13.678;2024-02-21T04:56:51;101413.72;;;10.50;61.12
30073;BME280;16897;52.422;13.678;2024-02-21T05:00:53;101424.63;;;10.60;61.14
30073;BME280;16897;52.422;13.678;2024-02-21T05:04:56;101398.97;;;10.49;61.11
30073;BME280;16897;52.422;13.678;2024-02-21T05:08:57;101409.09;;;10.57;61.17
30073;BME280;16897;52.422;13.678;2024-02-21T05:12:59;101400.75;;;10.49;60.99
30073;BME280;16897;52.422;13.678;2024-02-21T05:17:01;101405.06;;;10.50;61.07
30073;BME280;16897;52.422;13.678;2024-02-21T05:21:02;101405.66;;;10.56;61.08
30073;BME280;16897;52.422;13.678;2024-02-21T05:25:04;101388.53;;;10.49;60.94
30073;BME280;16897;52.422;13.678;2024-02-21T05:29:05;101369.19;;;10.34;61.02
30073;BME280;16897;52.422;13.678;2024-02-21T05:33:07;101415.16;;;10.57;61.16
30073;BME280;16897;52.422;13.678;2024-02-21T05:37:09;101399.81;;;10.50;61.18
30073;BME280;16897;52.422;13.678;2024-02-21T05:41:10;101363.38;;;10.28;61.07
30073;BME280;16897;52.422;13.678;2024-02-21T05:45:12;101394.59;;;10.50;60.98
30073;BME280;16897;52.422;13.678;2024-02-21T05:49:14;101394.56;;;10.51;61.10
30073;BME280;16897;52.422;13.678;2024-02-21T05:53:15;101412.56;;;10.57;61.04
30073;BME280;16897;52.422;13.678;2024-02-21T05:57:18;101412.56;;;10.57;61.08
30073;BME280;16897;52.422;13.678;2024-02-21T06:01:20;101416.09;;;10.56;61.23
30073;BME280;16897;52.422;13.678;2024-02-21T06:05:22;101405.06;;;10.50;61.25
30073;BME280;16897;52.422;13.678;2024-02-21T06:09:24;101404.06;;;10.52;61.13
30073;BME280;16897;52.422;13.678;2024-02-21T06:13:25;101405.69;;;10.55;61.28
30073;BME280;16897;52.422;13.678;2024-02-21T06:17:26;101398.56;;;10.58;61.09
30073;BME280;16897;52.422;13.678;2024-02-21T06:21:31;101391.84;;;10.53;61.35
30073;BME280;16897;52.422;13.678;2024-02-21T06:25:32;101383.47;;;10.46;61.08
30073;BME280;16897;52.422;13.678;2024-02-21T06:29:34;101385.00;;;10.50;61.32
30073;BME280;16897;52.422;13.678;2024-02-21T06:33:36;101367.94;;;10.43;61.26
30073;BME280;16897;52.422;13.678;2024-02-21T06:37:37;101380.91;;;10.45;61.16
30073;BME280;16897;52.422;13.678;2024-02-21T06:41:39;101370.25;;;10.49;61.26
30073;BME280;16897;52.422;13.678;2024-02-21T06:45:41;101379.66;;;10.53;61.13
30073;BME280;16897;52.422;13.678;2024-02-21T06:49:48;101387.69;;;10.49;61.19
30073;BME280;16897;52.422;13.678;2024-02-21T06:53:50;101385.28;;;10.44;61.32
30073;BME280;16897;52.422;13.678;2024-02-21T06:57:51;101362.44;;;10.29;61.29
30073;BME280;16897;52.422;13.678;2024-02-21T07:01:53;101374.69;;;10.47;61.41
30073;BME280;16897;52.422;13.678;2024-02-21T07:05:56;101354.38;;;10.35;61.45
30073;BME280;16897;52.422;13.678;2024-02-21T07:09:58;101384.03;;;10.53;61.25
30073;BME280;16897;52.422;13.678;2024-02-21T07:14:01;101375.69;;;10.45;61.25
30073;BME280;16897;52.422;13.678;2024-02-21T07:18:03;101392.91;;;10.49;61.20
30073;BME280;16897;52.422;13.678;2024-02-21T07:22:05;101394.47;;;10.53;61.38
30073;BME280;16897;52.422;13.678;2024-02-21T07:26:06;101397.72;;;10.58;61.20
30073;BME280;16897;52.422;13.678;2024-02-21T07:30:08;101397.81;;;10.56;61.50
30073;BME280;16897;52.422;13.678;2024-02-21T07:34:10;101407.34;;;10.57;61.41
30073;BME280;16897;52.422;13.678;2024-02-21T07:38:11;101386.53;;;10.56;61.48
30073;BME280;16897;52.422;13.678;2024-02-21T07:42:13;101384.53;;;10.61;61.17
30073;BME280;16897;52.422;13.678;2024-02-21T07:46:15;101386.53;;;10.56;61.39
30073;BME280;16897;52.422;13.678;2024-02-21T07:50:17;101351.47;;;10.41;61.37
30073;BME280;16897;52.422;13.678;2024-02-21T07:54:18;101373.47;;;10.56;61.10
30073;BME280;16897;52.422;13.678;2024-02-21T07:58:20;101393.09;;;10.65;61.50
30073;BME280;16897;52.422;13.678;2024-02-21T08:02:21;101386.28;;;10.60;61.45
30073;BME280;16897;52.422;13.678;2024-02-21T08:06:22;101376.69;;;10.61;61.49
30073;BME280;16897;52.422;13.678;2024-02-21T08:10:24;101366.97;;;10.65;61.42
30073;BME280;16897;52.422;13.678;2024-02-21T08:14:25;101367.81;;;10.65;61.41
30073;BME280;16897;52.422;13.678;2024-02-21T08:18:27;101352.00;;;10.68;61.50
30073;BME280;16897;52.422;13.678;2024-02-21T08:22:28;101347.84;;;10.64;61.34
30073;BME280;16897;52.422;13.678;2024-02-21T08:26:30;101361.53;;;10.69;61.49
30073;BME280;16897;52.422;13.678;2024-02-21T08:30:32;101341.69;;;10.65;61.41
30073;BME280;16897;52.422;13.678;2024-02-21T08:34:33;101360.41;;;10.75;61.47
30073;BME280;16897;52.422;13.678;2024-02-21T08:38:35;101355.94;;;10.77;61.50
30073;BME280;16897;52.422;13.678;2024-02-21T08:42:38;101316.56;;;10.62;61.54
30073;BME280;16897;52.422;13.678;2024-02-21T08:46:40;101352.44;;;10.78;61.45
30073;BME280;16897;52.422;13.678;2024-02-21T08:50:41;101339.38;;;10.78;61.38
30073;BME280;16897;52.422;13.678;2024-02-21T08:54:43;101357.88;;;10.92;61.53
30073;BME280;16897;52.422;13.678;2024-02-21T08:58:45;101353.47;;;10.93;61.31
30073;BME280;16897;52.422;13.678;2024-02-21T09:02:46;101315.00;;;10.77;61.46
30073;BME280;16897;52.422;13.678;2024-02-21T09:06:48;101358.06;;;11.06;61.65
30073;BME280;16897;52.422;13.678;2024-02-21T09:10:49;101345.13;;;11.03;61.51
30073;BME280;16897;52.422;13.678;2024-02-21T09:14:51;101326.38;;;10.95;61.41
30073;BME280;16897;52.422;13.678;2024-02-21T09:18:53;101369.63;;;11.20;61.54
30073;BME280;16897;52.422;13.678;2024-02-21T09:22:54;101336.94;;;11.11;61.45
30073;BME280;16897;52.422;13.678;2024-02-21T09:26:56;101348.56;;;11.23;61.63
30073;BME280;16897;52.422;13.678;2024-02-21T09:30:57;101360.22;;;11.35;61.58
30073;BME280;16897;52.422;13.678;2024-02-21T09:34:59;101344.44;;;11.36;61.60
30073;BME280;16897;52.422;13.678;2024-02-21T09:39:00;101333.63;;;11.44;61.46
30073;BME280;16897;52.422;13.678;2024-02-21T09:43:03;101320.63;;;11.42;61.33
30073;BME280;16897;52.422;13.678;2024-02-21T09:47:15;101295.13;;;11.28;61.42
30073;BME280;16897;52.422;13.678;2024-02-21T09:51:17;101321.94;;;11.51;61.41
30073;BME280;16897;52.422;13.678;2024-02-21T09:55:20;101301.78;;;11.53;61.58
30073;BME280;16897;52.422;13.678;2024-02-21T09:59:23;101317.94;;;11.61;61.67
30073;BME280;16897;52.422;13.678;2024-02-21T10:03:25;101323.72;;;11.68;61.54
30073;BME280;16897;52.422;13.678;2024-02-21T10:07:26;101339.09;;;11.74;61.53
30073;BME280;16897;52.422;13.678;2024-02-21T10:11:28;101324.00;;;11.79;61.62
30073;BME280;16897;52.422;13.678;2024-02-21T10:15:29;101327.34;;;11.83;61.49
30073;BME280;16897;52.422;13.678;2024-02-21T10:19:31;101335.75;;;11.89;61.57
30073;BME280;16897;52.422;13.678;2024-02-21T10:24:04;101331.13;;;11.94;61.49
30073;BME280;16897;52.422;13.678;2024-02-21T10:28:06;101314.75;;;11.91;61.60
30073;BME280;16897;52.422;13.678;2024-02-21T10:32:09;101328.13;;;12.02;61.52
30073;BME280;16897;52.422;13.678;2024-02-21T10:36:12;101325.41;;;12.04;61.45
30073;BME280;16897;52.422;13.678;2024-02-21T10:40:14;101328.72;;;12.07;61.48
30073;BME280;16897;52.422;13.678;2024-02-21T10:44:15;101326.00;;;12.09;61.59
30073;BME280;16897;52.422;13.678;2024-02-21T10:48:22;101319.00;;;12.09;61.71
30073;BME280;16897;52.422;13.678;2024-02-21T10:52:48;101319.22;;;12.22;61.48
30073;BME280;16897;52.422;13.678;2024-02-21T10:56:52;101303.66;;;12.19;61.42
30073;BME280;16897;52.422;13.678;2024-02-21T11:00:55;101291.56;;;12.16;61.32
30073;BME280;16897;52.422;13.678;2024-02-21T11:04:57;101298.09;;;12.25;61.41
30073;BME280;16897;52.422;13.678;2024-02-21T11:09:09;101271.88;;;12.09;61.41
30073;BME280;16897;52.422;13.678;2024-02-21T11:13:10;101300.97;;;12.36;61.40
30073;BME280;16897;52.422;13.678;2024-02-21T11:17:19;101286.03;;;12.38;61.39
30073;BME280;16897;52.422;13.678;2024-02-21T11:21:37;101276.16;;;12.44;61.44
30073;BME280;16897;52.422;13.678;2024-02-21T11:25:39;101279.38;;;12.49;61.49
30073;BME280;16897;52.422;13.678;2024-02-21T11:29:45;101217.84;;;12.24;61.51
30073;BME280;16897;52.422;13.678;2024-02-21T11:33:47;101239.06;;;12.51;61.55
30073;BME280;16897;52.422;13.678;2024-02-21T11:37:49;101245.50;;;12.61;61.36
30073;BME280;16897;52.422;13.678;2024-02-21T11:42:06;101246.75;;;12.70;61.46
30073;BME280;16897;52.422;13.678;2024-02-21T11:46:09;101228.66;;;12.66;61.62
30073;BME280;16897;52.422;13.678;2024-02-21T11:50:11;101226.22;;;12.78;61.41
30073;BME280;16897;52.422;13.678;2024-02-21T11:54:12;101205.06;;;12.81;61.54
30073;BME280;16897;52.422;13.678;2024-02-21T11:58:17;101212.91;;;12.97;61.42
30073;BME280;16897;52.422;13.678;2024-02-21T12:02:18;101195.03;;;13.04;61.44
30073;BME280;16897;52.422;13.678;2024-02-21T12:06:21;101184.03;;;13.13;61.53
30073;BME280;16897;52.422;13.678;2024-02-21T12:10:23;101183.38;;;13.24;61.38
30073;BME280;16897;52.422;13.678;2024-02-21T12:14:25;101200.97;;;13.38;61.49
30073;BME280;16897;52.422;13.678;2024-02-21T12:18:26;101171.34;;;13.36;61.28
30073;BME280;16897;52.422;13.678;2024-02-21T12:22:28;101171.72;;;13.44;61.40
30073;BME280;16897;52.422;13.678;2024-02-21T12:26:29;101157.13;;;13.54;61.47
30073;BME280;16897;52.422;13.678;2024-02-21T12:30:31;101139.88;;;13.50;61.16
30073;BME280;16897;52.422;13.678;2024-02-21T12:34:34;101145.78;;;13.68;61.38
30073;BME280;16897;52.422;13.678;2024-02-21T12:38:37;101133.22;;;13.73;61.39
30073;BME280;16897;52.422;13.678;2024-02-21T12:42:39;101137.06;;;13.82;61.34
30073;BME280;16897;52.422;13.678;2024-02-21T12:46:40;101140.34;;;13.85;61.42
30073;BME280;16897;52.422;13.678;2024-02-21T12:50:48;101132.38;;;13.87;61.30
30073;BME280;16897;52.422;13.678;2024-02-21T12:54:51;101101.09;;;13.69;61.27
30073;BME280;16897;52.422;13.678;2024-02-21T12:58:53;101112.69;;;13.80;61.27
30073;BME280;16897;52.422;13.678;2024-02-21T13:02:54;101117.75;;;13.83;61.10
30073;BME280;16897;52.422;13.678;2024-02-21T13:06:56;101109.97;;;13.81;61.20
30073;BME280;16897;52.422;13.678;2024-02-21T13:10:57;101124.41;;;13.88;61.16
30073;BME280;16897;52.422;13.678;2024-02-21T13:14:58;101111.28;;;13.88;61.20
30073;BME280;16897;52.422;13.678;2024-02-21T13:19:00;101096.56;;;13.71;61.21
30073;BME280;16897;52.422;13.678;2024-02-21T13:23:01;101112.31;;;13.86;61.12
30073;BME280;16897;52.422;13.678;2024-02-21T13:27:03;101121.09;;;13.85;61.17
30073;BME280;16897;52.422;13.678;2024-02-21T13:31:05;101085.16;;;13.72;61.05
30073;BME280;16897;52.422;13.678;2024-02-21T13:35:07;101074.88;;;13.82;61.23
30073;BME280;16897;52.422;13.678;2024-02-21T13:39:09;101082.59;;;13.85;61.08
30073;BME280;16897;52.422;13.678;2024-02-21T13:43:13;101053.94;;;13.68;61.04
30073;BME280;16897;52.422;13.678;2024-02-21T13:47:15;101054.50;;;13.73;61.09
30073;BME280;16897;52.422;13.678;2024-02-21T13:51:17;101060.19;;;13.80;61.02
30073;BME280;16897;52.422;13.678;2024-02-21T13:55:18;101075.38;;;13.89;61.03
30073;BME280;16897;52.422;13.678;2024-02-21T13:59:21;101050.75;;;13.77;61.05
30073;BME280;16897;52.422;13.678;2024-02-21T14:03:23;101026.94;;;13.66;61.05
30073;BME280;16897;52.422;13.678;2024-02-21T14:07:24;101049.88;;;13.77;60.95
30073;BME280;16897;52.422;13.678;2024-02-21T14:11:26;101043.59;;;13.79;61.00
30073;BME280;16897;52.422;13.678;2024-02-21T14:15:28;101040.13;;;13.79;61.09
30073;BME280;16897;52.422;13.678;2024-02-21T14:19:30;101052.50;;;13.91;60.97
30073;BME280;16897;52.422;13.678;2024-02-21T14:23:32;101034.69;;;13.82;60.94
30073;BME280;16897;52.422;13.678;2024-02-21T14:27:35;101047.53;;;13.86;60.82
30073;BME280;16897;52.422;13.678;2024-02-21T14:31:37;101019.88;;;13.81;60.85
30073;BME280;16897;52.422;13.678;2024-02-21T14:35:39;101052.84;;;13.99;60.82
30073;BME280;16897;52.422;13.678;2024-02-21T14:39:41;101039.03;;;13.95;60.82
30073;BME280;16897;52.422;13.678;2024-02-21T14:43:42;101028.84;;;13.91;60.76
30073;BME280;16897;52.422;13.678;2024-02-21T14:47:44;101015.63;;;13.92;60.89
30073;BME280;16897;52.422;13.678;2024-02-21T14:51:46;101034.25;;;14.02;60.82
30073;BME280;16897;52.422;13.678;2024-02-21T14:55:47;101030.78;;;14.02;60.80
30073;BME280;16897;52.422;13.678;2024-02-21T14:59:49;101021.88;;;14.04;60.78
30073;BME280;16897;52.422;13.678;2024-02-21T15:03:53;101004.19;;;13.93;60.77
30073;BME280;16897;52.422;13.678;2024-02-21T15:07:56;100970.22;;;13.78;60.84
30073;BME280;16897;52.422;13.678;2024-02-21T15:11:59;100997.91;;;13.96;60.70
30073;BME280;16897;52.422;13.678;2024-02-21T15:16:00;100992.44;;;13.99;60.69
30073;BME280;16897;52.422;13.678;2024-02-21T15:20:02;100988.13;;;13.98;60.68
30073;BME280;16897;52.422;13.678;2024-02-21T15:24:06;100981.81;;;14.01;60.74
30073;BME280;16897;52.422;13.678;2024-02-21T15:28:07;100943.00;;;13.79;60.69
30073;BME280;16897;52.422;13.678;2024-02-21T15:32:08;100963.44;;;14.01;60.60
30073;BME280;16897;52.422;13.678;2024-02-21T15:36:10;100924.75;;;13.77;60.62
30073;BME280;16897;52.422;13.678;2024-02-21T15:40:12;100945.38;;;13.96;60.54
30073;BME280;16897;52.422;13.678;2024-02-21T15:44:21;100934.13;;;13.94;60.64
30073;BME280;16897;52.422;13.678;2024-02-21T15:48:23;100898.88;;;13.71;60.46
30073;BME280;16897;52.422;13.678;2024-02-21T15:52:24;100901.97;;;13.78;60.61
30073;BME280;16897;52.422;13.678;2024-02-21T15:56:26;100898.19;;;13.82;60.54
30073;BME280;16897;52.422;13.678;2024-02-21T16:00:28;100895.97;;;13.76;60.40
30073;BME280;16897;52.422;13.678;2024-02-21T16:04:30;100899.13;;;13.81;60.48
30073;BME280;16897;52.422;13.678;2024-02-21T16:08:33;100889.75;;;13.77;60.54
30073;BME280;16897;52.422;13.678;2024-02-21T16:12:37;100873.69;;;13.68;60.41
30073;BME280;16897;52.422;13.678;2024-02-21T16:16:42;100879.97;;;13.66;60.40
30073;BME280;16897;52.422;13.678;2024-02-21T16:20:44;100868.59;;;13.53;60.40
30073;BME280;16897;52.422;13.678;2024-02-21T16:24:45;100807.47;;;13.11;60.39
30073;BME280;16897;52.422;13.678;2024-02-21T16:28:52;100874.44;;;13.43;60.29
30073;BME280;16897;52.422;13.678;2024-02-21T16:32:54;100868.38;;;13.43;60.37
30073;BME280;16897;52.422;13.678;2024-02-21T16:36:55;100860.34;;;13.32;60.26
30073;BME280;16897;52.422;13.678;2024-02-21T16:40:58;100858.84;;;13.27;60.17
30073;BME280;16897;52.422;13.678;2024-02-21T16:45:01;100869.16;;;13.31;60.30
30073;BME280;16897;52.422;13.678;2024-02-21T16:49:02;100833.78;;;13.09;60.28
30073;BME280;16897;52.422;13.678;2024-02-21T16:53:04;100854.19;;;13.18;60.16
30073;BME280;16897;52.422;13.678;2024-02-21T16:57:05;100865.22;;;13.23;60.19
30073;BME280;16897;52.422;13.678;2024-02-21T17:01:08;100846.34;;;13.04;60.16
30073;BME280;16897;52.422;13.678;2024-02-21T17:05:11;100862.53;;;13.11;60.10
30073;BME280;16897;52.422;13.678;2024-02-21T17:09:12;100859.66;;;13.01;60.17
30073;BME280;16897;52.422;13.678;2024-02-21T17:13:14;100869.09;;;13.03;60.08
30073;BME280;16897;52.422;13.678;2024-02-21T17:17:16;100849.00;;;12.90;60.09
30073;BME280;16897;52.422;13.678;2024-02-21T17:21:18;100848.81;;;12.93;60.01
30073;BME280;16897;52.422;13.678;2024-02-21T17:25:19;100837.03;;;12.71;60.06
30073;BME280;16897;52.422;13.678;2024-02-21T17:29:21;100839.31;;;12.77;60.05
30073;BME280;16897;52.422;13.678;2024-02-21T17:33:22;100839.47;;;12.74;60.07
30073;BME280;16897;52.422;13.678;2024-02-21T17:37:23;100831.09;;;12.69;59.98
30073;BME280;16897;52.422;13.678;2024-02-21T17:41:25;100783.56;;;12.47;60.09
30073;BME280;16897;52.422;13.678;2024-02-21T17:45:26;100774.03;;;12.46;60.16
30073;BME280;16897;52.422;13.678;2024-02-21T17:49:28;100767.97;;;12.45;60.06
30073;BME280;16897;52.422;13.678;2024-02-21T17:53:30;100777.22;;;12.51;60.06
30073;BME280;16897;52.422;13.678;2024-02-21T17:57:31;100787.38;;;12.55;60.04
30073;BME280;16897;52.422;13.678;2024-02-21T18:01:33;100792.81;;;12.52;60.04
30073;BME280;16897;52.422;13.678;2024-02-21T18:05:34;100773.28;;;12.44;59.98
30073;BME280;16897;52.422;13.678;2024-02-21T18:09:35;100780.75;;;12.50;59.88
30073;BME280;16897;52.422;13.678;2024-02-21T18:13:38;100757.75;;;12.40;59.92
30073;BME280;16897;52.422;13.678;2024-02-21T18:17:39;100747.94;;;12.30;60.07
30073;BME280;16897;52.422;13.678;2024-02-21T18:21:41;100742.72;;;12.30;59.88
30073;BME280;16897;52.422;13.678;2024-02-21T18:25:43;100743.53;;;12.30;59.92
30073;BME280;16897;52.422;13.678;2024-02-21T18:29:47;100730.19;;;12.21;60.00
30073;BME280;16897;52.422;13.678;2024-02-21T18:33:48;100733.75;;;12.20;59.94
30073;BME280;16897;52.422;13.678;2024-02-21T18:37:49;100727.88;;;12.16;59.75
30073;BME280;16897;52.422;13.678;2024-02-21T18:41:51;100724.69;;;12.11;59.73
30073;BME280;16897;52.422;13.678;2024-02-21T18:45:53;100703.00;;;11.94;59.88
30073;BME280;16897;52.422;13.678;2024-02-21T18:49:55;100678.91;;;11.89;59.66
30073;BME280;16897;52.422;13.678;2024-02-21T18:53:56;100685.78;;;11.90;59.71
30073;BME280;16897;52.422;13.678;2024-02-21T18:57:58;100633.47;;;11.62;59.65
30073;BME280;16897;52.422;13.678;2024-02-21T19:01:59;100650.44;;;11.69;59.73
30073;BME280;16897;52.422;13.678;2024-02-21T19:06:01;100622.59;;;11.39;59.65
30073;BME280;16897;52.422;13.678;2024-02-21T19:10:03;100647.28;;;11.49;59.69
30073;BME280;16897;52.422;13.678;2024-02-21T19:14:05;100617.75;;;11.33;59.69
30073;BME280;16897;52.422;13.678;2024-02-21T19:18:07;100634.09;;;11.37;59.68
30073;BME280;16897;52.422;13.678;2024-02-21T19:22:08;100614.88;;;11.23;59.71
30073;BME280;16897;52.422;13.678;2024-02-21T19:26:10;100596.72;;;11.20;59.66
30073;BME280;16897;52.422;13.678;2024-02-21T19:30:12;100592.38;;;11.21;59.91
30073;BME280;16897;52.422;13.678;2024-02-21T19:34:13;100576.00;;;11.17;60.04
30073;BME280;16897;52.422;13.678;2024-02-21T19:38:14;100572.47;;;11.18;59.83
30073;BME280;16897;52.422;13.678;2024-02-21T19:42:16;100581.34;;;11.16;59.85
30073;BME280;16897;52.422;13.678;2024-02-21T19:46:17;100559.88;;;11.11;60.06
30073;BME280;16897;52.422;13.678;2024-02-21T19:50:19;100522.72;;;10.91;59.89
30073;BME280;16897;52.422;13.678;2024-02-21T19:54:30;100539.22;;;11.06;59.91
30073;BME280;16897;52.422;13.678;2024-02-21T19:58:31;100538.03;;;11.12;59.96
30073;BME280;16897;52.422;13.678;2024-02-21T20:02:33;100547.38;;;11.16;60.12
30073;BME280;16897;52.422;13.678;2024-02-21T20:06:35;100513.03;;;11.07;60.12
30073;BME280;16897;52.422;13.678;2024-02-21T20:10:36;100510.97;;;11.13;60.19
30073;BME280;16897;52.422;13.678;2024-02-21T20:14:38;100516.19;;;11.13;59.92
30073;BME280;16897;52.422;13.678;2024-02-21T20:18:39;100536.34;;;11.25;59.88
30073;BME280;16897;52.422;13.678;2024-02-21T20:22:41;100528.13;;;11.17;60.09
30073;BME280;16897;52.422;13.678;2024-02-21T20:26:43;100532.91;;;11.24;59.98
30073;BME280;16897;52.422;13.678;2024-02-21T20:30:48;100506.13;;;11.21;60.00
30073;BME280;16897;52.422;13.678;2024-02-21T20:34:49;100515.16;;;11.29;59.91
30073;BME280;16897;52.422;13.678;2024-02-21T20:38:51;100487.50;;;11.25;60.06
30073;BME280;16897;52.422;13.678;2024-02-21T20:42:53;100451.41;;;11.03;60.06
30073;BME280;16897;52.422;13.678;2024-02-21T20:46:54;100489.78;;;11.32;60.13
30073;BME280;16897;52.422;13.678;2024-02-21T20:50:55;100469.34;;;11.24;60.02